createdAt,value
2023-04-16T00:02:14.188Z,24.98
2023-04-16T00:04:41.747Z,31.65
2023-04-16T00:07:10.374Z,29.48
2023-04-16T00:09:37.458Z,30.80
2023-04-16T00:12:04.824Z,28.83
2023-04-16T00:14:32.451Z,26.75
2023-04-16T00:16:59.583Z,30.08
2023-04-16T00:19:26.925Z,30.65
2023-04-16T00:21:54.089Z,27.15
2023-04-16T00:24:21.156Z,31.55
2023-04-16T00:26:48.294Z,28.75
2023-04-16T00:29:15.715Z,26.15
2023-04-16T00:31:42.695Z,25.10
2023-04-16T00:34:09.807Z,22.80
2023-04-16T00:36:36.918Z,22.85
2023-04-16T00:39:04.013Z,24.00
2023-04-16T00:41:31.087Z,24.73
2023-04-16T00:43:58.147Z,23.17
2023-04-16T00:46:25.713Z,22.65
2023-04-16T00:48:55.001Z,23.67
2023-04-16T00:51:22.545Z,20.02
2023-04-16T00:53:50.511Z,20.05
2023-04-16T00:56:18.234Z,20.90
2023-04-16T00:58:45.446Z,22.95
2023-04-16T01:01:14.654Z,20.80
2023-04-16T01:03:45.918Z,21.58
2023-04-16T01:06:13.846Z,20.52
2023-04-16T01:08:41.095Z,23.38
2023-04-16T01:11:08.238Z,20.13
2023-04-16T01:13:39.437Z,20.67
2023-04-16T01:16:11.556Z,19.00
2023-04-16T01:18:38.873Z,20.47
2023-04-16T01:21:06.780Z,20.33
2023-04-16T01:23:33.981Z,19.40
2023-04-16T01:26:01.114Z,18.13
2023-04-16T01:28:28.156Z,19.35
2023-04-16T01:30:55.188Z,18.38
2023-04-16T01:33:42.738Z,19.08
2023-04-16T01:36:12.081Z,17.83
2023-04-16T01:38:39.108Z,19.40
2023-04-16T01:41:06.200Z,18.73
2023-04-16T01:43:33.244Z,18.13
2023-04-16T01:46:30.809Z,19.17
2023-04-16T01:49:02.881Z,18.55
2023-04-16T01:51:30.047Z,14.70
2023-04-16T01:53:58.396Z,19.23
2023-04-16T01:56:25.900Z,15.95
2023-04-16T01:58:53.546Z,19.13
2023-04-16T02:01:21.249Z,19.52
2023-04-16T02:03:49.297Z,21.40
2023-04-16T02:06:16.782Z,17.27
2023-04-16T02:08:44.322Z,20.73
2023-04-16T02:11:11.398Z,20.25
2023-04-16T02:13:38.602Z,20.13
2023-04-16T02:16:06.178Z,15.95
2023-04-16T02:19:00.274Z,16.00
2023-04-16T02:21:31.707Z,18.13
2023-04-16T02:23:59.072Z,17.05
2023-04-16T02:26:29.845Z,21.42
2023-04-16T02:31:37.008Z,18.52
2023-04-16T02:34:04.887Z,16.85
2023-04-16T02:36:32.674Z,16.35
2023-04-16T02:38:59.816Z,18.17
2023-04-16T02:41:26.966Z,16.83
2023-04-16T02:43:54.115Z,18.77
2023-04-16T02:46:21.260Z,19.00
2023-04-16T02:48:48.405Z,18.83
2023-04-16T02:51:15.495Z,17.92
2023-04-16T02:53:46.057Z,14.52
2023-04-16T02:56:13.771Z,18.40
2023-04-16T02:58:40.945Z,16.90
2023-04-16T03:01:08.002Z,18.17
2023-04-16T03:03:35.109Z,20.95
2023-04-16T03:06:02.171Z,19.63
2023-04-16T03:08:29.296Z,16.52
2023-04-16T03:10:56.410Z,16.52
2023-04-16T03:13:23.384Z,18.90
2023-04-16T03:15:50.461Z,19.45
2023-04-16T03:18:17.661Z,17.92
2023-04-16T03:20:44.756Z,20.05
2023-04-16T03:23:11.934Z,19.27
2023-04-16T03:25:40.706Z,18.92
2023-04-16T03:28:09.264Z,20.23
2023-04-16T03:30:37.999Z,19.88
2023-04-16T03:33:06.723Z,18.95
2023-04-16T03:35:33.801Z,19.90
2023-04-16T03:38:01.558Z,20.60
2023-04-16T03:40:28.841Z,19.70
2023-04-16T03:42:56.285Z,21.08
2023-04-16T03:45:23.312Z,20.77
2023-04-16T03:47:52.960Z,19.33
2023-04-16T03:50:23.005Z,22.80
2023-04-16T03:52:50.078Z,22.17
2023-04-16T03:55:18.054Z,21.85
2023-04-16T03:57:45.825Z,21.65
2023-04-16T04:00:15.826Z,18.88
2023-04-16T04:02:56.111Z,19.63
2023-04-16T04:05:24.068Z,21.20
2023-04-16T04:07:52.344Z,20.63
2023-04-16T04:10:19.312Z,22.38
2023-04-16T04:12:46.364Z,18.90
2023-04-16T04:15:13.460Z,23.45
2023-04-16T04:17:42.635Z,22.67
2023-04-16T04:20:10.561Z,24.65
2023-04-16T04:22:37.720Z,23.48
2023-04-16T04:25:05.065Z,25.98
2023-04-16T04:27:33.209Z,25.05
2023-04-16T04:30:00.428Z,23.88
2023-04-16T04:32:28.025Z,30.33
2023-04-16T04:34:55.141Z,25.90
2023-04-16T04:37:22.146Z,26.05
2023-04-16T04:39:49.274Z,23.90
2023-04-16T04:42:21.573Z,25.08
2023-04-16T04:44:48.878Z,23.05
2023-04-16T04:47:16.113Z,23.60
2023-04-16T04:49:43.588Z,25.83
2023-04-16T04:52:11.629Z,27.85
2023-04-16T04:54:41.769Z,20.65
2023-04-16T04:57:09.814Z,23.73
2023-04-16T04:59:37.061Z,22.73
2023-04-16T05:02:04.300Z,21.55
2023-04-16T05:04:31.655Z,19.05
2023-04-16T05:06:58.899Z,18.40
2023-04-16T05:09:25.983Z,18.30
2023-04-16T05:11:53.132Z,19.92
2023-04-16T05:14:20.160Z,17.52
2023-04-16T05:16:47.445Z,18.08
2023-04-16T05:19:14.535Z,15.48
2023-04-16T05:21:41.585Z,19.17
2023-04-16T05:24:08.889Z,20.58
2023-04-16T05:26:36.056Z,17.02
2023-04-16T05:29:03.134Z,16.77
2023-04-16T05:31:30.357Z,17.65
2023-04-16T05:33:57.331Z,16.40
2023-04-16T05:36:24.349Z,16.23
2023-04-16T05:38:51.332Z,17.52
2023-04-16T05:41:18.453Z,16.08
2023-04-16T05:43:45.590Z,16.27
2023-04-16T05:46:12.608Z,17.50
2023-04-16T05:48:39.724Z,16.50
2023-04-16T05:51:06.738Z,17.02
2023-04-16T05:53:33.795Z,19.02
2023-04-16T05:56:00.762Z,17.77
2023-04-16T05:58:27.790Z,16.38
2023-04-16T06:00:54.992Z,16.63
2023-04-16T06:03:22.069Z,17.30
2023-04-16T06:05:49.282Z,16.38
2023-04-16T06:08:16.378Z,14.68
2023-04-16T06:10:43.470Z,14.18
2023-04-16T06:13:10.816Z,11.95
2023-04-16T06:15:37.906Z,11.25
2023-04-16T06:18:05.461Z,14.63
2023-04-16T06:20:32.557Z,10.77
2023-04-16T06:22:59.615Z,12.25
2023-04-16T06:25:26.664Z,10.38
2023-04-16T06:27:53.782Z,11.80
2023-04-16T06:30:20.987Z,10.10
2023-04-16T06:32:48.155Z,10.45
2023-04-16T06:35:15.269Z,11.18
2023-04-16T06:37:44.924Z,7.72
2023-04-16T06:40:12.340Z,9.98
2023-04-16T06:42:39.618Z,10.18
2023-04-16T06:45:07.458Z,9.57
2023-04-16T06:47:34.485Z,9.70
2023-04-16T06:50:01.665Z,9.05
2023-04-16T06:52:29.555Z,8.20
2023-04-16T06:54:57.185Z,9.45
2023-04-16T06:57:24.285Z,10.45
2023-04-16T06:59:51.344Z,9.43
2023-04-16T07:02:18.576Z,8.20
2023-04-16T07:04:45.752Z,10.32
2023-04-16T07:07:12.819Z,8.25
2023-04-16T07:09:39.841Z,9.00
2023-04-16T07:12:08.294Z,7.60
2023-04-16T07:14:35.286Z,10.27
2023-04-16T07:17:02.292Z,9.18
2023-04-16T07:19:32.636Z,8.23
2023-04-16T07:22:00.359Z,11.93
2023-04-16T07:24:27.517Z,8.23
2023-04-16T07:26:54.541Z,7.03
2023-04-16T07:29:21.601Z,8.77
2023-04-16T07:31:48.905Z,9.55
2023-04-16T07:34:15.930Z,6.13
2023-04-16T07:36:43.008Z,5.38
2023-04-16T07:39:11.523Z,4.45
2023-04-16T07:41:40.791Z,7.07
2023-04-16T07:44:08.253Z,4.90
2023-04-16T07:46:43.594Z,4.55
2023-04-16T07:49:13.898Z,5.45
2023-04-16T07:51:41.249Z,4.18
2023-04-16T07:54:08.332Z,7.03
2023-04-16T07:56:36.365Z,4.80
2023-04-16T07:59:18.550Z,4.15
2023-04-16T08:01:48.726Z,4.47
2023-04-16T08:04:17.552Z,6.32
2023-04-16T08:06:44.677Z,4.78
2023-04-16T08:09:12.555Z,4.60
2023-04-16T08:11:39.863Z,5.68
2023-04-16T08:14:07.067Z,7.60
2023-04-16T08:16:34.104Z,7.00
2023-04-16T08:19:01.249Z,5.50
2023-04-16T08:21:28.600Z,4.43
2023-04-16T08:23:56.039Z,5.95
2023-04-16T08:26:23.110Z,5.82
2023-04-16T08:28:50.153Z,4.50
2023-04-16T08:31:17.394Z,3.90
2023-04-16T08:33:44.696Z,3.22
2023-04-16T08:36:11.814Z,5.60
2023-04-16T08:38:39.232Z,4.13
2023-04-16T08:41:09.364Z,2.90
2023-04-16T08:43:39.472Z,3.05
2023-04-16T08:46:07.572Z,1.90
2023-04-16T08:48:36.541Z,4.93
2023-04-16T08:51:03.838Z,3.08
2023-04-16T08:53:42.212Z,3.35
2023-04-16T08:56:11.529Z,2.08
2023-04-16T08:58:40.395Z,2.60
2023-04-16T09:01:10.537Z,2.15
2023-04-16T09:03:37.933Z,2.25
2023-04-16T09:06:06.685Z,2.65
2023-04-16T09:08:35.867Z,1.77
2023-04-16T09:11:03.484Z,1.90
2023-04-16T09:13:32.008Z,2.50
2023-04-16T09:16:02.231Z,2.83
2023-04-16T09:18:30.382Z,2.20
2023-04-16T09:20:57.798Z,2.97
2023-04-16T09:23:25.236Z,3.30
2023-04-16T09:25:52.383Z,2.55
2023-04-16T09:28:42.129Z,2.67
2023-04-16T09:31:16.912Z,2.50
2023-04-16T09:34:00.490Z,3.28
2023-04-16T09:36:28.025Z,3.40
2023-04-16T09:38:57.544Z,2.35
2023-04-16T09:41:29.921Z,3.17
2023-04-16T09:43:58.034Z,1.75
2023-04-16T09:46:35.373Z,2.67
2023-04-16T09:49:10.358Z,3.47
2023-04-16T09:51:38.753Z,2.72
2023-04-16T09:54:06.955Z,3.63
2023-04-16T09:56:34.333Z,5.50
2023-04-16T09:59:01.355Z,6.35
2023-04-16T10:01:31.039Z,8.68
2023-04-16T10:04:00.148Z,6.63
2023-04-16T10:06:29.664Z,5.30
2023-04-16T10:08:57.297Z,2.25
2023-04-16T10:11:24.782Z,2.95
2023-04-16T10:13:52.104Z,2.17
2023-04-16T10:16:19.216Z,2.03
2023-04-16T10:18:47.664Z,1.50
2023-04-16T10:21:16.734Z,2.20
2023-04-16T10:23:44.394Z,2.10
2023-04-16T10:26:11.612Z,2.55
2023-04-16T10:28:39.143Z,3.08
2023-04-16T10:31:08.299Z,3.17
2023-04-16T10:33:39.388Z,3.78
2023-04-16T10:36:12.596Z,2.03
2023-04-16T10:38:52.780Z,2.50
2023-04-16T10:41:23.057Z,1.95
2023-04-16T10:43:53.476Z,2.50
2023-04-16T10:46:26.934Z,3.47
2023-04-16T10:48:55.546Z,2.10
2023-04-16T10:51:31.683Z,2.55
2023-04-16T10:54:15.057Z,1.88
2023-04-16T10:56:44.401Z,4.95
2023-04-16T10:59:12.070Z,1.98
2023-04-16T11:01:47.499Z,3.00
2023-04-16T11:04:20.925Z,3.90
2023-04-16T11:07:16.601Z,2.00
2023-04-16T11:09:51.332Z,3.00
2023-04-16T11:12:21.025Z,1.42
2023-04-16T11:14:53.659Z,2.53
2023-04-16T11:19:48.543Z,1.70
2023-04-16T11:22:17.496Z,4.13
2023-04-16T11:24:45.761Z,1.90
2023-04-16T11:27:16.762Z,1.15
2023-04-16T11:29:46.296Z,3.40
2023-04-16T11:32:24.086Z,0.73
2023-04-16T11:34:51.331Z,0.80
2023-04-16T11:37:32.439Z,1.80
2023-04-16T11:39:59.529Z,2.45
2023-04-16T11:42:28.518Z,2.78
2023-04-16T11:44:57.488Z,1.10
2023-04-16T11:47:25.166Z,0.93
2023-04-16T11:49:52.399Z,0.90
2023-04-16T11:52:27.458Z,1.65
2023-04-16T11:54:54.828Z,0.50
2023-04-16T11:57:30.547Z,1.38
2023-04-16T12:00:01.994Z,0.60
2023-04-16T12:02:55.649Z,1.02
2023-04-16T12:05:37.360Z,1.10
2023-04-16T12:08:09.701Z,1.48
2023-04-16T12:10:56.125Z,0.43
2023-04-16T12:13:23.369Z,0.57
2023-04-16T12:15:55.316Z,0.90
2023-04-16T12:18:26.225Z,0.90
2023-04-16T12:20:53.580Z,1.75
2023-04-16T12:23:24.372Z,1.30
2023-04-16T12:25:52.240Z,0.90
2023-04-16T12:28:38.686Z,2.25
2023-04-16T12:31:06.638Z,1.13
2023-04-16T12:33:33.835Z,0.70
2023-04-16T12:36:01.880Z,0.45
2023-04-16T12:38:29.766Z,4.13
2023-04-16T12:40:57.849Z,0.90
2023-04-16T12:43:25.754Z,0.70
2023-04-16T12:45:52.976Z,0.52
2023-04-16T12:48:20.086Z,1.08
2023-04-16T12:50:47.108Z,0.60
2023-04-16T12:53:14.301Z,1.15
2023-04-16T12:55:41.742Z,1.05
2023-04-16T12:58:11.075Z,1.30
2023-04-16T13:00:40.556Z,0.82
2023-04-16T13:03:08.061Z,0.90
2023-04-16T13:05:35.532Z,0.68
2023-04-16T13:08:02.846Z,0.90
2023-04-16T13:10:30.329Z,0.60
2023-04-16T13:13:00.185Z,0.93
2023-04-16T13:15:27.799Z,0.93
2023-04-16T13:17:54.995Z,1.48
2023-04-16T13:20:24.314Z,0.80
2023-04-16T13:22:51.793Z,0.40
2023-04-16T13:25:19.087Z,1.27
2023-04-16T13:27:46.143Z,1.90
2023-04-16T13:30:13.898Z,2.45
2023-04-16T13:32:41.616Z,1.92
2023-04-16T13:35:10.914Z,2.63
2023-04-16T13:37:38.640Z,2.25
2023-04-16T13:40:06.824Z,3.42
2023-04-16T13:42:34.490Z,1.80
2023-04-16T13:45:02.142Z,1.02
2023-04-16T13:47:33.720Z,3.30
2023-04-16T13:50:01.081Z,1.03
2023-04-16T13:52:28.202Z,1.00
2023-04-16T13:54:55.340Z,1.48
2023-04-16T13:57:22.814Z,3.55
2023-04-16T13:59:50.510Z,2.33
2023-04-16T14:02:17.771Z,1.58
2023-04-16T14:04:45.204Z,0.80
2023-04-16T14:07:12.340Z,1.60
2023-04-16T14:09:39.561Z,1.67
2023-04-16T14:12:07.197Z,1.17
2023-04-16T14:14:35.148Z,0.70
2023-04-16T14:17:03.421Z,1.10
2023-04-16T14:19:31.536Z,0.90
2023-04-16T14:21:58.699Z,1.30
2023-04-16T14:24:26.167Z,0.75
2023-04-16T14:26:53.606Z,1.50
2023-04-16T14:29:21.347Z,0.82
2023-04-16T14:31:48.514Z,2.25
2023-04-16T14:34:16.251Z,1.10
2023-04-16T14:36:44.874Z,1.90
2023-04-16T14:39:12.633Z,1.25
2023-04-16T14:41:39.879Z,2.38
2023-04-16T14:44:07.151Z,1.50
2023-04-16T14:46:34.290Z,1.02
2023-04-16T14:49:01.425Z,1.95
2023-04-16T14:51:28.543Z,2.53
2023-04-16T14:53:56.734Z,0.40
2023-04-16T14:56:23.852Z,1.73
2023-04-16T14:58:51.143Z,1.40
2023-04-16T15:01:18.365Z,1.38
2023-04-16T15:03:45.600Z,2.83
2023-04-16T15:06:14.729Z,2.15
2023-04-16T15:08:42.147Z,1.08
2023-04-16T15:11:09.309Z,2.42
2023-04-16T15:13:36.743Z,0.95
2023-04-16T15:16:06.956Z,1.35
2023-04-16T15:18:34.286Z,0.93
2023-04-16T15:21:01.622Z,0.60
2023-04-16T15:23:29.343Z,1.48
2023-04-16T15:25:57.068Z,3.17
2023-04-16T15:28:24.281Z,0.65
2023-04-16T15:30:52.620Z,1.60
2023-04-16T15:33:23.294Z,1.60
2023-04-16T15:35:51.923Z,3.88
2023-04-16T15:38:21.639Z,1.33
2023-04-16T15:40:49.171Z,2.00
2023-04-16T15:43:16.994Z,3.70
2023-04-16T15:45:44.830Z,1.27
2023-04-16T15:48:12.848Z,1.65
2023-04-16T15:50:40.920Z,1.33
2023-04-16T15:53:08.669Z,2.03
2023-04-16T15:55:36.258Z,2.45
2023-04-16T15:58:04.056Z,2.97
2023-04-16T16:00:31.756Z,2.90
2023-04-16T16:03:00.143Z,3.22
2023-04-16T16:05:27.839Z,1.70
2023-04-16T16:07:55.589Z,6.65
2023-04-16T16:10:23.222Z,4.57
2023-04-16T16:12:50.714Z,8.93
2023-04-16T16:15:18.458Z,11.43
2023-04-16T16:17:45.927Z,7.90
2023-04-16T16:20:13.582Z,12.75
2023-04-16T16:22:42.247Z,6.88
2023-04-16T16:25:10.767Z,3.15
2023-04-16T16:27:38.818Z,1.13
2023-04-16T16:30:08.085Z,3.20
2023-04-16T16:32:35.476Z,4.40
2023-04-16T16:35:02.714Z,1.75
2023-04-16T16:37:30.507Z,1.42
2023-04-16T16:39:58.614Z,2.03
2023-04-16T16:42:27.187Z,2.45
2023-04-16T16:44:57.303Z,2.65
2023-04-16T16:47:25.649Z,3.33
2023-04-16T16:49:55.262Z,4.50
2023-04-16T16:52:26.543Z,5.00
2023-04-16T16:54:55.168Z,4.25
2023-04-16T16:57:24.403Z,5.03
2023-04-16T16:59:51.912Z,18.05
2023-04-16T17:02:19.465Z,36.95
2023-04-16T17:04:47.495Z,2.03
2023-04-16T17:07:16.675Z,1.75
2023-04-16T17:09:44.874Z,3.35
2023-04-16T17:12:12.575Z,3.80
2023-04-16T17:14:40.087Z,4.47
2023-04-16T17:17:08.067Z,2.95
2023-04-16T17:19:35.923Z,4.53
2023-04-16T17:22:04.282Z,14.30
2023-04-16T17:24:32.364Z,7.70
2023-04-16T17:27:00.407Z,6.45
2023-04-16T17:29:28.619Z,7.35
2023-04-16T17:31:56.809Z,7.15
2023-04-16T17:34:24.718Z,8.15
2023-04-16T17:36:52.687Z,17.10
2023-04-16T17:39:21.840Z,8.02
2023-04-16T17:41:54.651Z,6.68
2023-04-16T17:44:23.556Z,8.43
2023-04-16T17:46:52.016Z,8.00
2023-04-16T17:49:19.847Z,10.13
2023-04-16T17:51:47.352Z,8.82
2023-04-16T17:54:15.157Z,9.68
2023-04-16T17:56:42.958Z,6.63
2023-04-16T17:59:10.763Z,5.35
2023-04-16T18:01:39.975Z,7.18
2023-04-16T18:04:08.501Z,6.50
2023-04-16T18:06:36.780Z,6.05
2023-04-16T18:09:09.474Z,7.47
2023-04-16T18:11:37.706Z,4.68
2023-04-16T18:14:05.568Z,6.53
2023-04-16T18:16:33.157Z,9.25
2023-04-16T18:19:00.656Z,8.55
2023-04-16T18:21:30.216Z,8.07
2023-04-16T18:23:58.218Z,4.25
2023-04-16T18:26:29.434Z,5.28
2023-04-16T18:28:57.679Z,4.25
2023-04-16T18:31:25.451Z,3.05
2023-04-16T18:33:58.057Z,1.42
2023-04-16T18:36:47.397Z,3.05
2023-04-16T18:39:16.000Z,7.43
2023-04-16T18:41:48.232Z,8.52
2023-04-16T18:44:18.286Z,2.35
2023-04-16T18:46:46.547Z,4.00
2023-04-16T18:49:14.425Z,3.25
2023-04-16T18:51:44.690Z,5.78
2023-04-16T18:54:32.566Z,3.72
2023-04-16T18:57:03.114Z,7.68
2023-04-16T18:59:30.797Z,4.15
2023-04-16T19:01:58.953Z,3.67
2023-04-16T19:04:27.084Z,4.07
2023-04-16T19:06:55.152Z,6.50
2023-04-16T19:09:23.417Z,5.93
2023-04-16T19:11:51.548Z,7.60
2023-04-16T19:14:20.653Z,6.75
2023-04-16T19:16:48.541Z,4.53
2023-04-16T19:19:17.342Z,6.15
2023-04-16T19:21:44.553Z,6.03
2023-04-16T19:24:12.575Z,4.78
2023-04-16T19:26:39.841Z,5.28
2023-04-16T19:29:07.883Z,6.47
2023-04-16T19:31:35.958Z,4.68
2023-04-16T19:34:04.895Z,4.63
2023-04-16T19:36:33.046Z,3.38
2023-04-16T19:39:01.263Z,4.47
2023-04-16T19:41:28.801Z,5.78
2023-04-16T19:43:57.999Z,5.57
2023-04-16T19:46:28.340Z,7.80
2023-04-16T19:48:57.416Z,9.77
2023-04-16T19:51:25.397Z,5.95
2023-04-16T19:53:58.078Z,9.82
2023-04-16T19:58:54.459Z,3.60
2023-04-16T20:01:22.792Z,6.10
2023-04-16T20:03:50.687Z,6.88
2023-04-16T20:06:18.773Z,4.55
2023-04-16T20:08:46.381Z,3.80
2023-04-16T20:11:14.203Z,4.25
2023-04-16T20:13:43.745Z,3.72
2023-04-16T20:16:13.816Z,4.53
2023-04-16T20:18:51.310Z,4.28
2023-04-16T20:21:20.583Z,3.60
2023-04-16T20:23:49.060Z,4.72
2023-04-16T20:26:18.729Z,6.07
2023-04-16T20:28:47.018Z,5.93
2023-04-16T20:31:14.125Z,3.55
2023-04-16T20:33:41.388Z,3.28
2023-04-16T20:36:09.604Z,2.95
2023-04-16T20:38:37.645Z,2.50
2023-04-16T20:41:12.413Z,2.72
2023-04-16T20:43:42.235Z,2.67
2023-04-16T20:46:11.158Z,4.15
2023-04-16T20:48:39.444Z,3.42
2023-04-16T20:51:09.830Z,4.20
2023-04-16T20:53:39.789Z,3.80
2023-04-16T20:56:09.121Z,4.47
2023-04-16T20:58:36.330Z,3.15
2023-04-16T21:01:03.422Z,4.15
2023-04-16T21:03:30.755Z,1.67
2023-04-16T21:05:57.963Z,1.92
2023-04-16T21:08:25.039Z,2.33
2023-04-16T21:10:52.148Z,3.70
2023-04-16T21:13:20.782Z,1.90
2023-04-16T21:15:47.843Z,2.45
2023-04-16T21:18:17.054Z,1.90
2023-04-16T21:20:44.395Z,1.88
2023-04-16T21:23:11.598Z,1.50
2023-04-16T21:25:38.656Z,1.92
2023-04-16T21:28:06.370Z,1.48
2023-04-16T21:30:33.525Z,1.10
2023-04-16T21:33:00.560Z,3.38
2023-04-16T21:35:27.718Z,2.50
2023-04-16T21:37:54.902Z,1.20
2023-04-16T21:40:22.099Z,1.23
2023-04-16T21:42:49.151Z,2.55
2023-04-16T21:45:16.326Z,1.65
2023-04-16T21:47:43.437Z,1.17
2023-04-16T21:50:11.037Z,2.92
2023-04-16T21:52:40.893Z,2.55
2023-04-16T21:55:09.594Z,2.13
2023-04-16T21:57:36.679Z,1.55
2023-04-16T22:00:09.220Z,2.00
2023-04-16T22:02:36.630Z,1.30
2023-04-16T22:05:03.868Z,1.00
2023-04-16T22:07:30.847Z,1.13
2023-04-16T22:09:57.916Z,1.60
2023-04-16T22:12:25.027Z,1.85
2023-04-16T22:15:01.851Z,1.05
2023-04-16T22:17:30.193Z,1.95
2023-04-16T22:20:00.450Z,2.40
2023-04-16T22:22:27.757Z,2.38
2023-04-16T22:24:54.787Z,1.50
2023-04-16T22:27:21.868Z,1.95
2023-04-16T22:29:48.968Z,2.28
2023-04-16T22:32:16.364Z,1.00
2023-04-16T22:34:43.495Z,1.60
2023-04-16T22:37:10.912Z,2.22
2023-04-16T22:39:37.963Z,2.03
2023-04-16T22:42:05.189Z,1.15
2023-04-16T22:44:32.538Z,1.75
2023-04-16T22:46:59.793Z,2.17
2023-04-16T22:49:28.329Z,2.33
2023-04-16T22:51:55.598Z,1.67
2023-04-16T22:54:22.546Z,1.65
2023-04-16T22:56:50.054Z,2.58
2023-04-16T22:59:17.281Z,1.25
2023-04-16T23:01:44.335Z,1.85
2023-04-16T23:04:11.639Z,1.73
2023-04-16T23:06:40.621Z,1.30
2023-04-16T23:09:07.818Z,4.40
2023-04-16T23:11:34.897Z,1.50
2023-04-16T23:14:03.052Z,1.98
2023-04-16T23:16:30.415Z,2.25
2023-04-16T23:18:57.417Z,1.17
2023-04-16T23:21:24.518Z,1.42
2023-04-16T23:23:51.707Z,1.88
2023-04-16T23:26:18.743Z,2.80
2023-04-16T23:28:45.738Z,2.13
2023-04-16T23:31:12.807Z,1.63
2023-04-16T23:33:39.957Z,3.28
2023-04-16T23:36:07.379Z,0.85
2023-04-16T23:38:34.620Z,2.22
2023-04-16T23:41:01.612Z,2.22
2023-04-16T23:43:28.794Z,1.88
2023-04-16T23:45:55.973Z,1.25
2023-04-16T23:48:23.029Z,1.27
2023-04-16T23:50:50.004Z,2.88
2023-04-16T23:53:17.368Z,2.13
2023-04-16T23:55:44.389Z,1.73
2023-04-16T23:58:11.630Z,2.17
